Terminal Aerodrome Forecast
Issued by NWS Sioux Falls, SD

Home | Current Version | Previous Version | Graphics & Text | Print | Product List | Glossary Off
Versions: 1 2 3 4 5 6 7 8 9 10 11 12 13 14 15 16 17 18 19 20 21 22 23

389
FTUS43 KFSD 292320
TAFSUX
TAF
KSUX 292320Z 3000/3024 07007KT P6SM SCT045
     FM300300 09005KT P6SM SCT250
     FM301100 VRB03KT 3SM BR SCT200
     FM301400 14004KT 6SM BR BKN250=

USA.gov is the U.S. government's official web portal to all federal, state and local government web resources and services.